createdAt,value
2022-12-13T00:00:31.098Z,-4.66
2022-12-13T00:02:57.361Z,-4.76
2022-12-13T00:05:23.675Z,-4.78
2022-12-13T00:07:50.039Z,-4.80
2022-12-13T00:10:16.471Z,-4.82
2022-12-13T00:12:44.117Z,-4.86
2022-12-13T00:15:11.026Z,-4.87
2022-12-13T00:17:37.402Z,-4.87
2022-12-13T00:20:04.175Z,-4.81
2022-12-13T00:22:30.474Z,-4.83
2022-12-13T00:24:56.753Z,-4.89
2022-12-13T00:27:23.200Z,-4.88
2022-12-13T00:29:50.888Z,-4.87
2022-12-13T00:32:17.306Z,-4.83
2022-12-13T00:34:43.650Z,-4.79
2022-12-13T00:37:09.939Z,-4.83
2022-12-13T00:39:36.246Z,-4.87
2022-12-13T00:42:02.566Z,-4.94
2022-12-13T00:44:28.855Z,-5.01
2022-12-13T00:46:56.573Z,-5.04
2022-12-13T00:49:22.958Z,-5.02
2022-12-13T00:51:49.506Z,-4.96
2022-12-13T00:54:16.095Z,-4.91
2022-12-13T00:56:42.392Z,-4.87
2022-12-13T00:59:09.625Z,-4.81
2022-12-13T01:01:36.407Z,-4.77
2022-12-13T01:04:04.762Z,-4.71
2022-12-13T01:06:33.299Z,-4.70
2022-12-13T01:09:00.031Z,-4.67
2022-12-13T01:11:26.352Z,-4.66
2022-12-13T01:13:52.676Z,-4.68
2022-12-13T01:16:19.069Z,-4.80
2022-12-13T01:18:45.397Z,-4.89
2022-12-13T01:21:14.188Z,-4.93
2022-12-13T01:23:40.532Z,-4.90
2022-12-13T01:26:07.971Z,-4.89
2022-12-13T01:28:34.238Z,-4.97
2022-12-13T01:31:01.454Z,-5.07
2022-12-13T01:33:27.992Z,-5.18
2022-12-13T01:35:54.422Z,-5.24
2022-12-13T01:38:26.202Z,-5.30
2022-12-13T01:40:53.290Z,-5.35
2022-12-13T01:43:25.765Z,-5.34
2022-12-13T01:45:52.185Z,-5.32
2022-12-13T01:48:22.855Z,-5.32
2022-12-13T01:50:51.583Z,-5.30
2022-12-13T01:53:19.920Z,-5.30
2022-12-13T01:55:49.627Z,-5.31
2022-12-13T01:58:16.465Z,-5.34
2022-12-13T02:00:43.463Z,-5.38
2022-12-13T02:03:09.974Z,-5.40
2022-12-13T02:05:53.342Z,-5.48
2022-12-13T02:08:19.910Z,-5.54
2022-12-13T02:10:47.620Z,-5.53
2022-12-13T02:13:13.911Z,-5.52
2022-12-13T02:15:46.392Z,-5.52
2022-12-13T02:18:18.942Z,-5.52
2022-12-13T02:20:57.277Z,-5.48
2022-12-13T02:23:41.425Z,-5.54
2022-12-13T02:26:29.960Z,-5.60
2022-12-13T02:29:05.758Z,-5.58
2022-12-13T02:31:38.036Z,-5.59
2022-12-13T02:34:06.755Z,-5.57
2022-12-13T02:36:37.038Z,-5.55
2022-12-13T02:39:07.610Z,-5.50
2022-12-13T02:41:37.244Z,-5.44
2022-12-13T02:44:22.253Z,-5.40
2022-12-13T02:46:51.716Z,-5.39
2022-12-13T02:49:19.173Z,-5.37
2022-12-13T02:51:45.570Z,-5.35
2022-12-13T02:54:11.860Z,-5.35
2022-12-13T02:56:38.160Z,-5.33
2022-12-13T02:59:09.759Z,-5.30
2022-12-13T03:01:42.712Z,-5.26
2022-12-13T03:04:13.027Z,-5.22
2022-12-13T03:06:52.770Z,-5.21
2022-12-13T03:09:25.772Z,-5.18
2022-12-13T03:12:10.996Z,-5.17
2022-12-13T03:14:40.014Z,-5.19
2022-12-13T03:17:07.581Z,-5.17
2022-12-13T03:19:35.287Z,-5.18
2022-12-13T03:22:05.065Z,-5.17
2022-12-13T03:24:31.443Z,-5.15
2022-12-13T03:26:57.771Z,-5.13
2022-12-13T03:29:24.905Z,-5.12
2022-12-13T03:31:51.537Z,-5.12
2022-12-13T03:34:23.159Z,-5.09
2022-12-13T03:36:51.897Z,-5.09
2022-12-13T03:39:18.569Z,-5.09
2022-12-13T03:41:45.027Z,-5.11
2022-12-13T03:44:11.441Z,-5.11
2022-12-13T03:46:37.781Z,-5.10
2022-12-13T03:49:04.145Z,-5.09
2022-12-13T03:51:30.424Z,-5.10
2022-12-13T03:53:58.045Z,-5.13
2022-12-13T03:56:24.352Z,-5.13
2022-12-13T03:58:50.663Z,-5.14
2022-12-13T04:01:17.414Z,-5.15
2022-12-13T04:03:44.627Z,-5.19
2022-12-13T04:06:11.712Z,-5.17
2022-12-13T04:08:38.719Z,-5.15
2022-12-13T04:11:07.047Z,-5.14
2022-12-13T04:13:33.336Z,-5.14
2022-12-13T04:16:00.198Z,-5.15
2022-12-13T04:18:26.580Z,-5.16
2022-12-13T04:20:53.487Z,-5.16
2022-12-13T04:23:19.779Z,-5.16
2022-12-13T04:25:46.082Z,-5.16
2022-12-13T04:28:22.103Z,-5.19
2022-12-13T04:30:52.924Z,-5.17
2022-12-13T04:33:20.476Z,-5.16
2022-12-13T04:35:46.793Z,-5.15
2022-12-13T04:38:13.062Z,-5.15
2022-12-13T04:40:39.543Z,-5.14
2022-12-13T04:43:05.837Z,-5.16
2022-12-13T04:45:33.562Z,-5.15
2022-12-13T04:47:59.912Z,-5.14
2022-12-13T04:50:26.188Z,-5.15
2022-12-13T04:52:52.469Z,-5.21
2022-12-13T04:55:18.770Z,-5.21
2022-12-13T04:57:45.110Z,-5.23
2022-12-13T05:00:12.052Z,-5.25
2022-12-13T05:02:39.774Z,-5.23
2022-12-13T05:05:06.595Z,-5.22
2022-12-13T05:07:32.908Z,-5.22
2022-12-13T05:09:59.182Z,-5.23
2022-12-13T05:12:25.489Z,-5.21
2022-12-13T05:14:51.830Z,-5.23
2022-12-13T05:17:18.119Z,-5.23
2022-12-13T05:19:45.715Z,-5.27
2022-12-13T05:22:17.761Z,-5.25
2022-12-13T05:24:45.919Z,-5.26
2022-12-13T05:27:24.426Z,-5.26
2022-12-13T05:30:02.085Z,-5.27
2022-12-13T05:32:31.028Z,-5.27
2022-12-13T05:34:58.692Z,-5.28
2022-12-13T05:37:25.005Z,-5.27
2022-12-13T05:39:51.295Z,-5.28
2022-12-13T05:42:17.616Z,-5.26
2022-12-13T05:44:43.931Z,-5.30
2022-12-13T05:47:10.250Z,-5.33
2022-12-13T05:49:36.530Z,-5.33
2022-12-13T05:52:14.943Z,-5.36
2022-12-13T05:54:43.012Z,-5.36
2022-12-13T05:57:09.422Z,-5.36
2022-12-13T05:59:35.707Z,-5.38
2022-12-13T06:02:02.124Z,-5.40
2022-12-13T06:04:28.514Z,-5.37
2022-12-13T06:06:54.792Z,-5.37
2022-12-13T06:09:22.565Z,-5.33
2022-12-13T06:11:49.290Z,-5.37
2022-12-13T06:14:21.583Z,-5.38
2022-12-13T06:16:48.401Z,-5.39
2022-12-13T06:19:14.733Z,-5.38
2022-12-13T06:21:46.033Z,-5.34
2022-12-13T06:24:17.409Z,-5.35
2022-12-13T06:26:45.918Z,-5.37
2022-12-13T06:29:12.734Z,-5.38
2022-12-13T06:31:54.668Z,-5.39
2022-12-13T06:34:28.274Z,-5.36
2022-12-13T06:36:54.591Z,-5.37
2022-12-13T06:39:20.980Z,-5.39
2022-12-13T06:41:48.645Z,-5.41
2022-12-13T06:44:14.995Z,-5.40
2022-12-13T06:46:41.385Z,-5.43
2022-12-13T06:49:07.758Z,-5.43
2022-12-13T06:51:34.630Z,-5.46
2022-12-13T06:54:01.093Z,-5.44
2022-12-13T06:56:27.612Z,-5.44
2022-12-13T06:59:01.554Z,-5.45
2022-12-13T07:01:28.825Z,-5.44
2022-12-13T07:04:03.502Z,-5.48
2022-12-13T07:06:29.819Z,-5.48
2022-12-13T07:08:57.198Z,-5.51
2022-12-13T07:11:24.570Z,-5.50
2022-12-13T07:13:51.022Z,-5.51
2022-12-13T07:16:19.113Z,-5.52
2022-12-13T07:18:45.441Z,-5.52
2022-12-13T07:21:21.545Z,-5.53
2022-12-13T07:23:48.334Z,-5.54
2022-12-13T07:26:21.366Z,-5.55
2022-12-13T07:28:52.934Z,-5.59
2022-12-13T07:31:23.027Z,-5.55
2022-12-13T07:33:49.528Z,-5.55
2022-12-13T07:36:17.273Z,-5.54
2022-12-13T07:38:43.603Z,-5.53
2022-12-13T07:41:11.535Z,-5.57
2022-12-13T07:43:37.850Z,-5.57
2022-12-13T07:46:05.673Z,-5.58
2022-12-13T07:48:33.318Z,-5.58
2022-12-13T07:51:01.376Z,-5.59
2022-12-13T07:53:27.920Z,-5.57
2022-12-13T07:56:00.998Z,-5.55
2022-12-13T07:58:27.308Z,-5.53
2022-12-13T08:00:53.641Z,-5.52
2022-12-13T08:03:24.988Z,-5.48
2022-12-13T08:05:59.427Z,-5.45
2022-12-13T08:08:30.816Z,-5.40
2022-12-13T08:11:01.408Z,-5.34
2022-12-13T08:13:28.193Z,-5.33
2022-12-13T08:15:57.361Z,-5.27
2022-12-13T08:18:23.713Z,-5.23
2022-12-13T08:20:50.013Z,-5.15
2022-12-13T08:23:17.617Z,-5.09
2022-12-13T08:25:49.974Z,-5.05
2022-12-13T08:28:16.291Z,-5.03
2022-12-13T08:30:42.603Z,-5.03
2022-12-13T08:33:08.946Z,-4.98
2022-12-13T08:35:35.425Z,-4.99
2022-12-13T08:38:01.864Z,-4.94
2022-12-13T08:40:29.503Z,-4.90
2022-12-13T08:42:55.862Z,-4.89
2022-12-13T08:45:22.474Z,-4.84
2022-12-13T08:47:48.776Z,-4.79
2022-12-13T08:50:15.679Z,-4.73
2022-12-13T08:52:42.634Z,-4.67
2022-12-13T08:55:09.341Z,-4.61
2022-12-13T08:57:37.139Z,-4.57
2022-12-13T09:00:03.855Z,-4.54
2022-12-13T09:02:30.193Z,-4.51
2022-12-13T09:05:04.532Z,-4.47
2022-12-13T09:07:30.834Z,-4.42
2022-12-13T09:09:57.140Z,-4.35
2022-12-13T09:12:30.826Z,-4.29
2022-12-13T09:15:00.977Z,-4.20
2022-12-13T09:17:29.411Z,-4.14
2022-12-13T09:20:09.978Z,-4.09
2022-12-13T09:22:50.252Z,-4.04
2022-12-13T09:25:24.216Z,-4.02
2022-12-13T09:27:50.836Z,-3.96
2022-12-13T09:30:18.504Z,-3.97
2022-12-13T09:32:44.815Z,-3.90
2022-12-13T09:35:11.124Z,-3.91
2022-12-13T09:37:42.579Z,-3.84
2022-12-13T09:40:25.913Z,-3.80
2022-12-13T09:43:11.961Z,-3.77
2022-12-13T09:45:44.093Z,-3.72
2022-12-13T09:48:22.497Z,-3.69
2022-12-13T09:50:57.903Z,-3.61
2022-12-13T09:53:36.722Z,-3.50
2022-12-13T09:56:11.006Z,-3.44
2022-12-13T09:58:37.784Z,-3.38
2022-12-13T10:01:07.733Z,-3.30
2022-12-13T10:03:34.125Z,-3.21
2022-12-13T10:06:01.942Z,-3.15
2022-12-13T10:08:31.388Z,-3.07
2022-12-13T10:10:57.691Z,-3.02
2022-12-13T10:13:27.446Z,-2.92
2022-12-13T10:15:57.183Z,-2.83
2022-12-13T10:18:32.234Z,-2.77
2022-12-13T10:20:58.970Z,-2.73
2022-12-13T10:23:59.284Z,-2.65
2022-12-13T10:26:14.916Z,-2.54
2022-12-13T10:29:00.892Z,-2.43
2022-12-13T10:31:27.232Z,-2.37
2022-12-13T10:33:56.236Z,-2.33
2022-12-13T10:36:30.679Z,-2.29
2022-12-13T10:38:57.341Z,-2.33
2022-12-13T10:41:28.413Z,-2.33
2022-12-13T10:44:08.396Z,-2.20
2022-12-13T10:46:38.878Z,-2.14
2022-12-13T10:49:16.165Z,-2.11
2022-12-13T10:51:44.770Z,-2.09
2022-12-13T10:54:14.982Z,-2.16
2022-12-13T10:56:44.603Z,-2.10
2022-12-13T10:59:17.712Z,-2.03
2022-12-13T11:01:44.332Z,-1.95
2022-12-13T11:04:26.923Z,-1.91
2022-12-13T11:06:54.014Z,-1.88
2022-12-13T11:09:28.667Z,-1.80
2022-12-13T11:11:58.346Z,-1.82
2022-12-13T11:14:32.257Z,-1.86
2022-12-13T11:17:00.891Z,-1.87
2022-12-13T11:19:32.498Z,-1.88
2022-12-13T11:21:59.371Z,-1.84
2022-12-13T11:24:28.335Z,-1.79
2022-12-13T11:26:57.260Z,-1.73
2022-12-13T11:29:42.786Z,-1.68
2022-12-13T11:32:13.348Z,-1.69
2022-12-13T11:34:54.583Z,-1.67
2022-12-13T11:37:25.340Z,-1.68
2022-12-13T11:39:53.915Z,-1.67
2022-12-13T11:42:30.457Z,-1.71
2022-12-13T11:45:00.615Z,-1.74
2022-12-13T11:47:31.445Z,-1.77
2022-12-13T11:50:00.475Z,-1.78
2022-12-13T11:52:28.832Z,-1.82
2022-12-13T11:54:58.405Z,-1.86
2022-12-13T11:57:32.246Z,-1.84
2022-12-13T12:00:03.029Z,-1.80
2022-12-13T12:02:33.025Z,-1.75
2022-12-13T12:05:02.814Z,-1.71
2022-12-13T12:07:33.907Z,-1.63
2022-12-13T12:10:04.318Z,-1.62
2022-12-13T12:12:32.211Z,-1.59
2022-12-13T12:15:05.664Z,-1.52
2022-12-13T12:17:42.256Z,-1.49
2022-12-13T12:20:13.130Z,-1.43
2022-12-13T12:22:42.667Z,-1.44
2022-12-13T12:25:22.073Z,-1.38
2022-12-13T12:27:51.329Z,-1.34
2022-12-13T12:30:23.692Z,-1.33
2022-12-13T12:33:00.137Z,-1.26
2022-12-13T12:35:46.041Z,-1.23
2022-12-13T12:38:20.280Z,-1.20
2022-12-13T12:43:44.735Z,-1.11
2022-12-13T12:46:21.352Z,-1.15
2022-12-13T12:49:03.463Z,-1.17
2022-12-13T12:51:34.203Z,-1.11
2022-12-13T12:54:08.154Z,-1.16
2022-12-13T12:56:39.997Z,-1.21
2022-12-13T12:59:11.955Z,-1.20
2022-12-13T13:01:49.031Z,-1.23
2022-12-13T13:04:22.947Z,-1.23
2022-12-13T13:06:53.081Z,-1.23
2022-12-13T13:09:28.794Z,-1.17
2022-12-13T13:11:57.473Z,-1.19
2022-12-13T13:14:27.113Z,-1.19
2022-12-13T13:16:53.559Z,-1.18
2022-12-13T13:19:34.762Z,-1.17
2022-12-13T13:22:02.706Z,-1.16
2022-12-13T13:24:29.832Z,-1.16
2022-12-13T13:26:57.471Z,-1.18
2022-12-13T13:29:31.012Z,-1.18
2022-12-13T13:32:01.873Z,-1.19
2022-12-13T13:34:29.737Z,-1.21
2022-12-13T13:36:56.545Z,-1.20
2022-12-13T13:39:38.902Z,-1.20
2022-12-13T13:42:15.633Z,-1.19
2022-12-13T13:44:56.850Z,-1.19
2022-12-13T13:47:36.974Z,-1.19
2022-12-13T13:50:13.311Z,-1.18
2022-12-13T13:52:44.454Z,-1.24
2022-12-13T13:55:38.682Z,-1.21
2022-12-13T13:58:25.024Z,-1.25
2022-12-13T14:01:03.127Z,-1.24
2022-12-13T14:03:46.257Z,-1.27
2022-12-13T14:06:33.648Z,-1.26
2022-12-13T14:09:11.823Z,-1.25
2022-12-13T14:11:50.481Z,-1.25
2022-12-13T14:14:38.501Z,-1.24
2022-12-13T14:17:26.086Z,-1.29
2022-12-13T14:20:09.872Z,-1.27
2022-12-13T14:22:40.859Z,-1.31
2022-12-13T14:25:21.585Z,-1.30
2022-12-13T14:27:53.474Z,-1.32
2022-12-13T14:30:28.369Z,-1.32
2022-12-13T14:32:56.211Z,-1.31
2022-12-13T14:35:25.603Z,-1.37
2022-12-13T14:37:56.458Z,-1.37
2022-12-13T14:40:24.993Z,-1.36
2022-12-13T14:42:52.982Z,-1.40
2022-12-13T14:45:22.563Z,-1.43
2022-12-13T14:47:48.944Z,-1.44
2022-12-13T14:50:17.194Z,-1.43
2022-12-13T14:52:44.050Z,-1.45
2022-12-13T14:55:21.403Z,-1.44
2022-12-13T14:57:51.731Z,-1.48
2022-12-13T15:00:24.411Z,-1.51
2022-12-13T15:02:51.694Z,-1.52
2022-12-13T15:05:28.963Z,-1.55
2022-12-13T15:07:56.294Z,-1.55
2022-12-13T15:10:24.086Z,-1.57
2022-12-13T15:12:51.176Z,-1.57
2022-12-13T15:15:21.616Z,-1.57
2022-12-13T15:17:49.291Z,-1.62
2022-12-13T15:20:23.421Z,-1.65
2022-12-13T15:22:56.431Z,-1.66
2022-12-13T15:25:22.940Z,-1.66
2022-12-13T15:27:50.394Z,-1.66
2022-12-13T15:30:16.713Z,-1.72
2022-12-13T15:32:57.911Z,-1.69
2022-12-13T15:35:27.204Z,-1.74
2022-12-13T15:37:53.502Z,-1.78
2022-12-13T15:40:19.859Z,-1.81
2022-12-13T15:42:46.845Z,-1.85
2022-12-13T15:45:19.064Z,-1.83
2022-12-13T15:47:45.635Z,-1.91
2022-12-13T15:50:26.835Z,-1.88
2022-12-13T15:52:58.776Z,-1.90
2022-12-13T15:55:28.471Z,-1.91
2022-12-13T15:57:55.806Z,-1.94
2022-12-13T16:00:30.757Z,-1.94
2022-12-13T16:03:00.174Z,-1.92
2022-12-13T16:05:36.031Z,-1.94
2022-12-13T16:08:14.418Z,-1.92
2022-12-13T16:10:45.868Z,-1.90
2022-12-13T16:13:21.339Z,-1.93
2022-12-13T16:15:53.114Z,-1.95
2022-12-13T16:18:31.743Z,-1.95
2022-12-13T16:20:58.245Z,-1.98
2022-12-13T16:23:27.382Z,-2.04
2022-12-13T16:25:54.362Z,-2.00
2022-12-13T16:28:20.677Z,-2.01
2022-12-13T16:30:56.880Z,-2.00
2022-12-13T16:33:26.370Z,-2.07
2022-12-13T16:35:53.996Z,-2.14
2022-12-13T16:38:26.669Z,-2.09
2022-12-13T16:40:55.591Z,-2.08
2022-12-13T16:43:27.808Z,-2.08
2022-12-13T16:45:57.865Z,-2.08
2022-12-13T16:48:24.545Z,-2.08
2022-12-13T16:50:57.934Z,-2.11
2022-12-13T16:53:24.864Z,-2.10
2022-12-13T16:55:58.407Z,-2.10
2022-12-13T16:58:26.645Z,-2.13
2022-12-13T17:00:52.989Z,-2.12
2022-12-13T17:03:26.156Z,-2.11
2022-12-13T17:05:58.684Z,-2.12
2022-12-13T17:08:25.307Z,-2.12
2022-12-13T17:10:58.398Z,-2.14
2022-12-13T17:13:25.244Z,-2.13
2022-12-13T17:15:59.625Z,-2.16
2022-12-13T17:18:26.439Z,-2.18
2022-12-13T17:20:58.936Z,-2.18
2022-12-13T17:23:25.753Z,-2.22
2022-12-13T17:25:57.876Z,-2.21
2022-12-13T17:28:24.730Z,-2.22
2022-12-13T17:30:54.919Z,-2.23
2022-12-13T17:33:24.347Z,-2.23
2022-12-13T17:35:50.937Z,-2.21
2022-12-13T17:38:17.254Z,-2.20
2022-12-13T17:40:47.510Z,-2.20
2022-12-13T17:43:32.759Z,-2.18
2022-12-13T17:46:01.157Z,-2.20
2022-12-13T17:48:34.056Z,-2.18
2022-12-13T17:51:04.308Z,-2.15
2022-12-13T17:53:30.632Z,-2.17
2022-12-13T17:55:57.407Z,-2.17
2022-12-13T17:58:23.955Z,-2.17
2022-12-13T18:00:50.572Z,-2.17
2022-12-13T18:03:16.879Z,-2.16
2022-12-13T18:05:44.695Z,-2.16
2022-12-13T18:08:11.271Z,-2.16
2022-12-13T18:10:37.573Z,-2.15
2022-12-13T18:13:03.891Z,-2.18
2022-12-13T18:15:30.244Z,-2.15
2022-12-13T18:18:12.678Z,-2.17
2022-12-13T18:20:39.175Z,-2.16
2022-12-13T18:23:06.925Z,-2.16
2022-12-13T18:25:33.269Z,-2.15
2022-12-13T18:28:01.312Z,-2.18
2022-12-13T18:30:27.737Z,-2.15
2022-12-13T18:32:54.078Z,-2.16
2022-12-13T18:35:20.414Z,-2.15
2022-12-13T18:37:46.719Z,-2.16
2022-12-13T18:40:14.345Z,-2.16
2022-12-13T18:42:40.640Z,-2.16
2022-12-13T18:45:07.285Z,-2.16
2022-12-13T18:47:33.623Z,-2.15
2022-12-13T18:49:59.952Z,-2.19
2022-12-13T18:52:26.279Z,-2.18
2022-12-13T18:54:54.348Z,-2.19
2022-12-13T18:57:22.481Z,-2.20
2022-12-13T18:59:54.512Z,-2.23
2022-12-13T19:02:21.490Z,-2.22
2022-12-13T19:04:54.943Z,-2.21
2022-12-13T19:07:22.167Z,-2.23
2022-12-13T19:09:54.690Z,-2.23
2022-12-13T19:12:24.479Z,-2.23
2022-12-13T19:14:54.572Z,-2.23
2022-12-13T19:17:21.543Z,-2.25
2022-12-13T19:19:48.428Z,-2.25
2022-12-13T19:22:15.071Z,-2.25
2022-12-13T19:24:41.396Z,-2.23
2022-12-13T19:27:07.681Z,-2.22
2022-12-13T19:29:35.400Z,-2.23
2022-12-13T19:32:01.732Z,-2.22
2022-12-13T19:34:28.061Z,-2.22
2022-12-13T19:36:54.392Z,-2.23
2022-12-13T19:39:20.782Z,-2.23
2022-12-13T19:41:47.106Z,-2.26
2022-12-13T19:44:13.402Z,-2.27
2022-12-13T19:46:41.101Z,-2.30
2022-12-13T19:49:07.435Z,-2.27
2022-12-13T19:51:39.224Z,-2.25
2022-12-13T19:54:06.206Z,-2.24
2022-12-13T19:56:32.507Z,-2.26
2022-12-13T19:58:58.823Z,-2.29
2022-12-13T20:01:25.129Z,-2.30
2022-12-13T20:03:52.819Z,-2.31
2022-12-13T20:06:20.675Z,-2.26
2022-12-13T20:08:47.005Z,-2.27
2022-12-13T20:11:14.518Z,-2.27
2022-12-13T20:13:41.321Z,-2.28
2022-12-13T20:16:07.713Z,-2.28
2022-12-13T20:18:34.268Z,-2.27
2022-12-13T20:21:11.531Z,-2.28
2022-12-13T20:23:38.652Z,-2.29
2022-12-13T20:26:06.051Z,-2.30
2022-12-13T20:28:32.553Z,-2.25
2022-12-13T20:31:05.594Z,-2.27
2022-12-13T20:33:32.010Z,-2.25
2022-12-13T20:36:23.632Z,-2.26
2022-12-13T20:38:48.756Z,-2.25
2022-12-13T20:41:15.086Z,-2.29
2022-12-13T20:43:41.648Z,-2.29
2022-12-13T20:46:08.847Z,-2.29
2022-12-13T20:48:35.638Z,-2.28
2022-12-13T20:51:04.482Z,-2.25
2022-12-13T20:53:31.026Z,-2.29
2022-12-13T20:55:57.601Z,-2.28
2022-12-13T20:58:23.970Z,-2.31
2022-12-13T21:00:50.383Z,-2.29
2022-12-13T21:03:16.690Z,-2.31
2022-12-13T21:05:42.966Z,-2.33
2022-12-13T21:08:10.592Z,-2.30
2022-12-13T21:10:36.895Z,-2.31
2022-12-13T21:13:03.228Z,-2.32
2022-12-13T21:15:29.550Z,-2.33
2022-12-13T21:17:55.915Z,-2.33
2022-12-13T21:20:22.378Z,-2.34
2022-12-13T21:22:48.725Z,-2.32
2022-12-13T21:25:16.566Z,-2.32
2022-12-13T21:27:42.840Z,-2.32
2022-12-13T21:30:09.717Z,-2.32
2022-12-13T21:32:35.986Z,-2.35
2022-12-13T21:35:02.300Z,-2.32
2022-12-13T21:37:28.599Z,-2.34
2022-12-13T21:39:54.927Z,-2.35
2022-12-13T21:42:22.557Z,-2.36
2022-12-13T21:44:48.843Z,-2.34
2022-12-13T21:47:15.163Z,-2.36
2022-12-13T21:49:41.475Z,-2.41
2022-12-13T21:52:07.807Z,-2.43
2022-12-13T21:54:34.128Z,-2.40
2022-12-13T21:57:00.431Z,-2.38
2022-12-13T21:59:28.520Z,-2.38
2022-12-13T22:01:56.323Z,-2.40
2022-12-13T22:04:22.675Z,-2.43
2022-12-13T22:06:48.993Z,-2.41
2022-12-13T22:09:15.281Z,-2.39
2022-12-13T22:11:41.606Z,-2.45
2022-12-13T22:14:07.966Z,-2.43
2022-12-13T22:16:35.777Z,-2.41
2022-12-13T22:19:02.120Z,-2.44
2022-12-13T22:21:28.419Z,-2.43
2022-12-13T22:23:54.950Z,-2.49
2022-12-13T22:26:21.460Z,-2.52
2022-12-13T22:28:47.778Z,-2.57
2022-12-13T22:31:14.093Z,-2.49
2022-12-13T22:33:41.703Z,-2.57
2022-12-13T22:36:08.318Z,-2.56
2022-12-13T22:38:34.632Z,-2.55
2022-12-13T22:41:01.463Z,-2.52
2022-12-13T22:43:27.759Z,-2.56
2022-12-13T22:46:00.379Z,-2.54
2022-12-13T22:48:26.973Z,-2.55
2022-12-13T22:50:54.903Z,-2.55
2022-12-13T22:53:21.213Z,-2.60
2022-12-13T22:55:47.508Z,-2.59
2022-12-13T22:58:13.786Z,-2.57
2022-12-13T23:00:40.154Z,-2.57
2022-12-13T23:03:06.569Z,-2.55
2022-12-13T23:05:32.891Z,-2.59
2022-12-13T23:08:00.530Z,-2.58
2022-12-13T23:10:26.841Z,-2.62
2022-12-13T23:12:53.160Z,-2.63
2022-12-13T23:15:19.620Z,-2.62
2022-12-13T23:17:45.899Z,-2.70
2022-12-13T23:20:12.269Z,-2.69
2022-12-13T23:22:38.561Z,-2.68
2022-12-13T23:25:06.740Z,-2.65
2022-12-13T23:27:33.039Z,-2.63
2022-12-13T23:29:59.339Z,-2.60
2022-12-13T23:32:25.640Z,-2.59
2022-12-13T23:34:51.956Z,-2.63
2022-12-13T23:37:18.289Z,-2.62
2022-12-13T23:39:44.562Z,-2.56
2022-12-13T23:42:12.244Z,-2.55
2022-12-13T23:44:38.554Z,-2.54
2022-12-13T23:47:04.873Z,-2.53
2022-12-13T23:49:31.200Z,-2.50
2022-12-13T23:51:57.521Z,-2.48
2022-12-13T23:54:23.811Z,-2.44
2022-12-13T23:56:50.108Z,-2.45
2022-12-13T23:59:17.736Z,-2.46
